sensor_id;sensor_type;location;lat;lon;timestamp;temperature;humidity
19088;DHT22;9676;50.916;13.352;2023-12-14T00:00:46;9.10;99.90
19088;DHT22;9676;50.916;13.352;2023-12-14T00:03:36;9.10;99.90
19088;DHT22;9676;50.916;13.352;2023-12-14T00:06:26;9.20;99.90
19088;DHT22;9676;50.916;13.352;2023-12-14T00:09:16;9.20;99.90
19088;DHT22;9676;50.916;13.352;2023-12-14T00:12:07;9.20;99.90
19088;DHT22;9676;50.916;13.352;2023-12-14T00:14:56;9.30;99.90
19088;DHT22;9676;50.916;13.352;2023-12-14T00:17:46;9.30;99.90
19088;DHT22;9676;50.916;13.352;2023-12-14T00:20:35;9.30;99.90
19088;DHT22;9676;50.916;13.352;2023-12-14T00:23:25;9.30;99.90
19088;DHT22;9676;50.916;13.352;2023-12-14T00:26:15;9.30;99.90
19088;DHT22;9676;50.916;13.352;2023-12-14T00:29:06;9.30;99.90
19088;DHT22;9676;50.916;13.352;2023-12-14T00:31:56;9.40;99.90
19088;DHT22;9676;50.916;13.352;2023-12-14T00:34:45;9.40;99.90
19088;DHT22;9676;50.916;13.352;2023-12-14T00:37:35;9.40;99.90
19088;DHT22;9676;50.916;13.352;2023-12-14T00:40:24;9.50;99.90
19088;DHT22;9676;50.916;13.352;2023-12-14T00:43:14;9.50;99.90
19088;DHT22;9676;50.916;13.352;2023-12-14T00:46:05;9.50;99.90
19088;DHT22;9676;50.916;13.352;2023-12-14T00:48:55;9.60;99.90
19088;DHT22;9676;50.916;13.352;2023-12-14T00:51:44;9.60;99.90
19088;DHT22;9676;50.916;13.352;2023-12-14T00:54:34;9.60;99.90
19088;DHT22;9676;50.916;13.352;2023-12-14T00:57:23;9.70;99.90
19088;DHT22;9676;50.916;13.352;2023-12-14T01:00:13;9.80;99.90
19088;DHT22;9676;50.916;13.352;2023-12-14T01:03:05;9.80;99.90
19088;DHT22;9676;50.916;13.352;2023-12-14T01:05:54;9.80;99.90
19088;DHT22;9676;50.916;13.352;2023-12-14T01:08:44;9.90;99.90
19088;DHT22;9676;50.916;13.352;2023-12-14T01:11:34;9.90;99.90
19088;DHT22;9676;50.916;13.352;2023-12-14T01:14:23;9.90;99.90
19088;DHT22;9676;50.916;13.352;2023-12-14T01:17:13;10.00;99.90
19088;DHT22;9676;50.916;13.352;2023-12-14T01:20:05;10.00;99.90
19088;DHT22;9676;50.916;13.352;2023-12-14T01:22:56;10.00;99.90
19088;DHT22;9676;50.916;13.352;2023-12-14T01:25:45;10.10;99.90
19088;DHT22;9676;50.916;13.352;2023-12-14T01:28:35;10.10;99.90
19088;DHT22;9676;50.916;13.352;2023-12-14T01:31:24;10.10;99.90
19088;DHT22;9676;50.916;13.352;2023-12-14T01:34:14;10.20;99.90
19088;DHT22;9676;50.916;13.352;2023-12-14T01:37:05;10.20;99.90
19088;DHT22;9676;50.916;13.352;2023-12-14T01:39:55;10.20;99.90
19088;DHT22;9676;50.916;13.352;2023-12-14T01:42:44;10.30;99.90
19088;DHT22;9676;50.916;13.352;2023-12-14T01:45:34;10.40;99.90
19088;DHT22;9676;50.916;13.352;2023-12-14T01:48:23;10.40;99.90
19088;DHT22;9676;50.916;13.352;2023-12-14T01:51:13;10.40;99.90
19088;DHT22;9676;50.916;13.352;2023-12-14T01:54:04;10.40;99.90
19088;DHT22;9676;50.916;13.352;2023-12-14T01:56:54;10.40;99.90
19088;DHT22;9676;50.916;13.352;2023-12-14T01:59:43;10.40;99.90
19088;DHT22;9676;50.916;13.352;2023-12-14T02:02:33;10.40;99.90
19088;DHT22;9676;50.916;13.352;2023-12-14T02:05:23;10.40;99.90
19088;DHT22;9676;50.916;13.352;2023-12-14T02:08:13;10.40;99.90
19088;DHT22;9676;50.916;13.352;2023-12-14T02:11:04;10.40;99.90
19088;DHT22;9676;50.916;13.352;2023-12-14T02:13:54;10.50;99.90
19088;DHT22;9676;50.916;13.352;2023-12-14T02:16:44;10.50;99.90
19088;DHT22;9676;50.916;13.352;2023-12-14T02:19:34;10.40;99.90
19088;DHT22;9676;50.916;13.352;2023-12-14T02:22:24;10.50;99.90
19088;DHT22;9676;50.916;13.352;2023-12-14T02:25:15;10.50;99.90
19088;DHT22;9676;50.916;13.352;2023-12-14T02:28:04;10.50;99.90
19088;DHT22;9676;50.916;13.352;2023-12-14T02:30:54;10.50;99.90
19088;DHT22;9676;50.916;13.352;2023-12-14T02:33:43;10.50;99.90
19088;DHT22;9676;50.916;13.352;2023-12-14T02:36:33;10.50;99.90
19088;DHT22;9676;50.916;13.352;2023-12-14T02:39:22;10.50;99.90
19088;DHT22;9676;50.916;13.352;2023-12-14T02:42:13;10.50;99.90
19088;DHT22;9676;50.916;13.352;2023-12-14T02:45:04;10.50;99.90
19088;DHT22;9676;50.916;13.352;2023-12-14T02:47:55;10.50;99.90
19088;DHT22;9676;50.916;13.352;2023-12-14T02:50:44;10.50;99.90
19088;DHT22;9676;50.916;13.352;2023-12-14T02:53:34;10.50;99.90
19088;DHT22;9676;50.916;13.352;2023-12-14T02:56:23;10.60;99.90
19088;DHT22;9676;50.916;13.352;2023-12-14T02:59:14;10.50;99.90
19088;DHT22;9676;50.916;13.352;2023-12-14T03:02:04;10.60;99.90
19088;DHT22;9676;50.916;13.352;2023-12-14T03:04:54;10.60;99.90
19088;DHT22;9676;50.916;13.352;2023-12-14T03:07:43;10.60;99.90
19088;DHT22;9676;50.916;13.352;2023-12-14T03:10:33;10.50;99.90
19088;DHT22;9676;50.916;13.352;2023-12-14T03:13:23;10.60;99.90
19088;DHT22;9676;50.916;13.352;2023-12-14T03:16:14;10.60;99.90
19088;DHT22;9676;50.916;13.352;2023-12-14T03:19:04;10.60;99.90
19088;DHT22;9676;50.916;13.352;2023-12-14T03:21:54;10.60;99.90
19088;DHT22;9676;50.916;13.352;2023-12-14T03:24:43;10.60;99.90
19088;DHT22;9676;50.916;13.352;2023-12-14T03:27:33;10.60;99.90
19088;DHT22;9676;50.916;13.352;2023-12-14T03:30:23;10.60;99.90
19088;DHT22;9676;50.916;13.352;2023-12-14T03:33:14;10.60;99.90
19088;DHT22;9676;50.916;13.352;2023-12-14T03:36:05;10.60;99.90
19088;DHT22;9676;50.916;13.352;2023-12-14T03:38:55;10.60;99.90
19088;DHT22;9676;50.916;13.352;2023-12-14T03:41:44;10.60;99.90
19088;DHT22;9676;50.916;13.352;2023-12-14T03:44:34;10.60;99.90
19088;DHT22;9676;50.916;13.352;2023-12-14T03:47:24;10.60;99.90
19088;DHT22;9676;50.916;13.352;2023-12-14T03:50:15;10.60;99.90
19088;DHT22;9676;50.916;13.352;2023-12-14T03:53:05;10.60;99.90
19088;DHT22;9676;50.916;13.352;2023-12-14T03:55:54;10.60;99.90
19088;DHT22;9676;50.916;13.352;2023-12-14T03:58:44;10.60;99.90
19088;DHT22;9676;50.916;13.352;2023-12-14T04:01:34;10.60;99.90
19088;DHT22;9676;50.916;13.352;2023-12-14T04:04:26;10.60;99.90
19088;DHT22;9676;50.916;13.352;2023-12-14T04:07:17;10.60;99.90
19088;DHT22;9676;50.916;13.352;2023-12-14T04:10:08;10.60;99.90
19088;DHT22;9676;50.916;13.352;2023-12-14T04:12:58;10.60;99.90
19088;DHT22;9676;50.916;13.352;2023-12-14T04:15:48;10.60;99.90
19088;DHT22;9676;50.916;13.352;2023-12-14T04:18:37;10.60;99.90
19088;DHT22;9676;50.916;13.352;2023-12-14T04:21:28;10.60;99.90
19088;DHT22;9676;50.916;13.352;2023-12-14T04:24:19;10.60;99.90
19088;DHT22;9676;50.916;13.352;2023-12-14T04:27:10;10.60;99.90
19088;DHT22;9676;50.916;13.352;2023-12-14T04:29:59;10.70;99.90
19088;DHT22;9676;50.916;13.352;2023-12-14T04:32:49;10.70;99.90
19088;DHT22;9676;50.916;13.352;2023-12-14T04:35:40;10.70;99.90
19088;DHT22;9676;50.916;13.352;2023-12-14T04:38:30;10.70;99.90
19088;DHT22;9676;50.916;13.352;2023-12-14T04:41:21;10.70;99.90
19088;DHT22;9676;50.916;13.352;2023-12-14T04:43:51;10.70;99.90
19088;DHT22;9676;50.916;13.352;2023-12-14T04:46:39;10.70;99.90
19088;DHT22;9676;50.916;13.352;2023-12-14T04:49:26;10.70;99.90
19088;DHT22;9676;50.916;13.352;2023-12-14T04:52:14;10.70;99.90
19088;DHT22;9676;50.916;13.352;2023-12-14T04:54:44;10.70;99.90
19088;DHT22;9676;50.916;13.352;2023-12-14T04:57:17;10.70;99.90
19088;DHT22;9676;50.916;13.352;2023-12-14T05:00:06;10.70;99.90
19088;DHT22;9676;50.916;13.352;2023-12-14T05:02:48;10.70;99.90
19088;DHT22;9676;50.916;13.352;2023-12-14T05:05:36;10.70;99.90
19088;DHT22;9676;50.916;13.352;2023-12-14T05:08:06;10.70;99.90
19088;DHT22;9676;50.916;13.352;2023-12-14T05:10:55;10.70;99.90
19088;DHT22;9676;50.916;13.352;2023-12-14T05:13:44;10.70;99.90
19088;DHT22;9676;50.916;13.352;2023-12-14T05:16:32;10.70;99.90
19088;DHT22;9676;50.916;13.352;2023-12-14T05:19:17;10.70;99.90
19088;DHT22;9676;50.916;13.352;2023-12-14T05:22:05;10.70;99.90
19088;DHT22;9676;50.916;13.352;2023-12-14T05:24:53;10.70;99.90
19088;DHT22;9676;50.916;13.352;2023-12-14T05:27:41;10.70;99.90
19088;DHT22;9676;50.916;13.352;2023-12-14T05:30:18;10.70;99.90
19088;DHT22;9676;50.916;13.352;2023-12-14T05:33:06;10.70;99.90
19088;DHT22;9676;50.916;13.352;2023-12-14T05:35:58;10.70;99.90
19088;DHT22;9676;50.916;13.352;2023-12-14T05:38:45;10.70;99.90
19088;DHT22;9676;50.916;13.352;2023-12-14T05:41:33;10.70;99.90
19088;DHT22;9676;50.916;13.352;2023-12-14T05:44:27;10.70;99.90
19088;DHT22;9676;50.916;13.352;2023-12-14T05:47:16;10.60;99.90
19088;DHT22;9676;50.916;13.352;2023-12-14T05:50:05;10.60;99.90
19088;DHT22;9676;50.916;13.352;2023-12-14T05:52:55;10.60;99.90
19088;DHT22;9676;50.916;13.352;2023-12-14T05:55:45;10.60;99.90
19088;DHT22;9676;50.916;13.352;2023-12-14T05:58:32;10.60;99.90
19088;DHT22;9676;50.916;13.352;2023-12-14T06:01:20;10.60;99.90
19088;DHT22;9676;50.916;13.352;2023-12-14T06:03:51;10.50;99.90
19088;DHT22;9676;50.916;13.352;2023-12-14T06:06:39;10.50;99.90
19088;DHT22;9676;50.916;13.352;2023-12-14T06:09:27;10.50;99.90
19088;DHT22;9676;50.916;13.352;2023-12-14T06:12:20;10.40;99.90
19088;DHT22;9676;50.916;13.352;2023-12-14T06:15:08;10.50;99.90
19088;DHT22;9676;50.916;13.352;2023-12-14T06:17:38;10.40;99.90
19088;DHT22;9676;50.916;13.352;2023-12-14T06:20:30;10.40;99.90
19088;DHT22;9676;50.916;13.352;2023-12-14T06:23:18;10.40;99.90
19088;DHT22;9676;50.916;13.352;2023-12-14T06:26:06;10.40;99.90
19088;DHT22;9676;50.916;13.352;2023-12-14T06:28:54;10.40;99.90
19088;DHT22;9676;50.916;13.352;2023-12-14T06:31:44;10.40;99.90
19088;DHT22;9676;50.916;13.352;2023-12-14T06:34:32;10.40;99.90
19088;DHT22;9676;50.916;13.352;2023-12-14T06:37:03;10.40;99.90
19088;DHT22;9676;50.916;13.352;2023-12-14T06:39:52;10.40;99.90
19088;DHT22;9676;50.916;13.352;2023-12-14T06:42:39;10.40;99.90
19088;DHT22;9676;50.916;13.352;2023-12-14T06:45:28;10.40;99.90
19088;DHT22;9676;50.916;13.352;2023-12-14T06:48:16;10.40;99.90
19088;DHT22;9676;50.916;13.352;2023-12-14T06:51:06;10.40;99.90
19088;DHT22;9676;50.916;13.352;2023-12-14T06:53:55;10.40;99.90
19088;DHT22;9676;50.916;13.352;2023-12-14T06:56:43;10.40;99.90
19088;DHT22;9676;50.916;13.352;2023-12-14T06:59:15;10.40;99.90
19088;DHT22;9676;50.916;13.352;2023-12-14T07:02:05;10.30;99.90
19088;DHT22;9676;50.916;13.352;2023-12-14T07:04:53;10.30;99.90
19088;DHT22;9676;50.916;13.352;2023-12-14T07:07:41;10.20;99.90
19088;DHT22;9676;50.916;13.352;2023-12-14T07:10:31;10.20;99.90
19088;DHT22;9676;50.916;13.352;2023-12-14T07:13:14;10.20;99.90
19088;DHT22;9676;50.916;13.352;2023-12-14T07:16:04;10.20;99.90
19088;DHT22;9676;50.916;13.352;2023-12-14T07:18:35;10.20;99.90
19088;DHT22;9676;50.916;13.352;2023-12-14T07:21:23;10.20;99.90
19088;DHT22;9676;50.916;13.352;2023-12-14T07:24:11;10.20;99.90
19088;DHT22;9676;50.916;13.352;2023-12-14T07:27:00;10.20;99.90
19088;DHT22;9676;50.916;13.352;2023-12-14T07:29:30;10.20;99.90
19088;DHT22;9676;50.916;13.352;2023-12-14T07:32:17;10.10;99.90
19088;DHT22;9676;50.916;13.352;2023-12-14T07:35:07;10.10;99.90
19088;DHT22;9676;50.916;13.352;2023-12-14T07:37:56;10.10;99.90
19088;DHT22;9676;50.916;13.352;2023-12-14T07:40:31;10.10;99.90
19088;DHT22;9676;50.916;13.352;2023-12-14T07:43:20;10.10;99.90
19088;DHT22;9676;50.916;13.352;2023-12-14T07:46:09;10.10;99.90
19088;DHT22;9676;50.916;13.352;2023-12-14T07:48:38;10.10;99.90
19088;DHT22;9676;50.916;13.352;2023-12-14T07:51:26;10.10;99.90
19088;DHT22;9676;50.916;13.352;2023-12-14T07:54:13;10.00;99.90
19088;DHT22;9676;50.916;13.352;2023-12-14T07:57:02;10.10;99.90
19088;DHT22;9676;50.916;13.352;2023-12-14T07:59:33;10.10;99.90
19088;DHT22;9676;50.916;13.352;2023-12-14T08:02:14;10.00;99.90
19088;DHT22;9676;50.916;13.352;2023-12-14T08:04:58;10.00;99.90
19088;DHT22;9676;50.916;13.352;2023-12-14T08:07:46;10.00;99.90
19088;DHT22;9676;50.916;13.352;2023-12-14T08:10:38;10.00;99.90
19088;DHT22;9676;50.916;13.352;2023-12-14T08:13:16;10.00;99.90
19088;DHT22;9676;50.916;13.352;2023-12-14T08:16:07;10.00;99.90
19088;DHT22;9676;50.916;13.352;2023-12-14T08:18:57;10.00;99.90
19088;DHT22;9676;50.916;13.352;2023-12-14T08:21:45;10.00;99.90
19088;DHT22;9676;50.916;13.352;2023-12-14T08:24:14;9.90;99.90
19088;DHT22;9676;50.916;13.352;2023-12-14T08:27:02;10.00;99.90
19088;DHT22;9676;50.916;13.352;2023-12-14T08:29:50;10.00;99.90
19088;DHT22;9676;50.916;13.352;2023-12-14T08:32:39;9.90;99.90
19088;DHT22;9676;50.916;13.352;2023-12-14T08:35:28;9.90;99.90
19088;DHT22;9676;50.916;13.352;2023-12-14T08:38:16;9.90;99.90
19088;DHT22;9676;50.916;13.352;2023-12-14T08:41:04;9.90;99.90
19088;DHT22;9676;50.916;13.352;2023-12-14T08:43:52;9.90;99.90
19088;DHT22;9676;50.916;13.352;2023-12-14T08:46:39;9.90;99.90
19088;DHT22;9676;50.916;13.352;2023-12-14T08:49:28;9.90;99.90
19088;DHT22;9676;50.916;13.352;2023-12-14T08:51:58;9.80;99.90
19088;DHT22;9676;50.916;13.352;2023-12-14T08:54:33;9.90;99.90
19088;DHT22;9676;50.916;13.352;2023-12-14T08:57:03;9.80;99.90
19088;DHT22;9676;50.916;13.352;2023-12-14T08:59:51;9.80;99.90
19088;DHT22;9676;50.916;13.352;2023-12-14T09:02:40;9.80;99.90
19088;DHT22;9676;50.916;13.352;2023-12-14T09:05:30;9.80;99.90
19088;DHT22;9676;50.916;13.352;2023-12-14T09:08:00;9.80;99.90
19088;DHT22;9676;50.916;13.352;2023-12-14T09:10:30;9.80;99.90
19088;DHT22;9676;50.916;13.352;2023-12-14T09:12:59;9.80;99.90
19088;DHT22;9676;50.916;13.352;2023-12-14T09:15:50;9.80;99.90
19088;DHT22;9676;50.916;13.352;2023-12-14T09:18:21;9.80;99.90
19088;DHT22;9676;50.916;13.352;2023-12-14T09:20:53;9.80;99.90
19088;DHT22;9676;50.916;13.352;2023-12-14T09:23:28;9.80;99.90
19088;DHT22;9676;50.916;13.352;2023-12-14T09:26:15;9.90;99.90
19088;DHT22;9676;50.916;13.352;2023-12-14T09:28:45;9.90;99.90
19088;DHT22;9676;50.916;13.352;2023-12-14T09:31:33;9.90;99.90
19088;DHT22;9676;50.916;13.352;2023-12-14T09:34:21;9.90;99.90
19088;DHT22;9676;50.916;13.352;2023-12-14T09:36:59;9.90;99.90
19088;DHT22;9676;50.916;13.352;2023-12-14T09:39:28;9.90;99.90
19088;DHT22;9676;50.916;13.352;2023-12-14T09:42:19;10.00;99.90
19088;DHT22;9676;50.916;13.352;2023-12-14T09:45:08;10.00;99.90
19088;DHT22;9676;50.916;13.352;2023-12-14T09:47:39;10.00;99.90
19088;DHT22;9676;50.916;13.352;2023-12-14T09:50:09;10.00;99.90
19088;DHT22;9676;50.916;13.352;2023-12-14T09:52:58;10.00;99.90
19088;DHT22;9676;50.916;13.352;2023-12-14T09:55:48;10.00;99.90
19088;DHT22;9676;50.916;13.352;2023-12-14T09:58:33;10.00;99.90
19088;DHT22;9676;50.916;13.352;2023-12-14T10:01:11;10.00;99.90
19088;DHT22;9676;50.916;13.352;2023-12-14T10:04:10;10.00;99.90
19088;DHT22;9676;50.916;13.352;2023-12-14T10:06:59;10.00;99.90
19088;DHT22;9676;50.916;13.352;2023-12-14T10:09:54;10.00;99.90
19088;DHT22;9676;50.916;13.352;2023-12-14T10:12:24;10.00;99.90
19088;DHT22;9676;50.916;13.352;2023-12-14T10:15:00;10.00;99.90
19088;DHT22;9676;50.916;13.352;2023-12-14T10:17:52;10.00;99.90
19088;DHT22;9676;50.916;13.352;2023-12-14T10:20:41;10.00;99.90
19088;DHT22;9676;50.916;13.352;2023-12-14T10:23:12;10.00;99.90
19088;DHT22;9676;50.916;13.352;2023-12-14T10:25:44;10.00;99.90
19088;DHT22;9676;50.916;13.352;2023-12-14T10:28:13;10.00;99.90
19088;DHT22;9676;50.916;13.352;2023-12-14T10:31:02;10.00;99.90
19088;DHT22;9676;50.916;13.352;2023-12-14T10:33:33;10.00;99.90
19088;DHT22;9676;50.916;13.352;2023-12-14T10:36:24;10.00;99.90
19088;DHT22;9676;50.916;13.352;2023-12-14T10:38:57;10.00;99.90
19088;DHT22;9676;50.916;13.352;2023-12-14T10:41:40;10.00;99.90
19088;DHT22;9676;50.916;13.352;2023-12-14T10:44:28;10.00;99.90
19088;DHT22;9676;50.916;13.352;2023-12-14T10:47:20;10.10;99.90
19088;DHT22;9676;50.916;13.352;2023-12-14T10:50:01;10.00;99.90
19088;DHT22;9676;50.916;13.352;2023-12-14T10:52:31;10.00;99.90
19088;DHT22;9676;50.916;13.352;2023-12-14T10:55:06;10.00;99.90
19088;DHT22;9676;50.916;13.352;2023-12-14T10:57:39;10.00;99.90
19088;DHT22;9676;50.916;13.352;2023-12-14T11:00:12;10.00;99.90
19088;DHT22;9676;50.916;13.352;2023-12-14T11:02:46;10.00;99.90
19088;DHT22;9676;50.916;13.352;2023-12-14T11:05:16;10.00;99.90
19088;DHT22;9676;50.916;13.352;2023-12-14T11:08:09;10.00;99.90
19088;DHT22;9676;50.916;13.352;2023-12-14T11:10:41;9.90;99.90
19088;DHT22;9676;50.916;13.352;2023-12-14T11:13:13;9.90;99.90
19088;DHT22;9676;50.916;13.352;2023-12-14T11:15:47;9.90;99.90
19088;DHT22;9676;50.916;13.352;2023-12-14T11:18:23;9.80;99.90
19088;DHT22;9676;50.916;13.352;2023-12-14T11:21:18;9.80;99.90
19088;DHT22;9676;50.916;13.352;2023-12-14T11:24:09;9.80;99.90
19088;DHT22;9676;50.916;13.352;2023-12-14T11:26:57;9.80;99.90
19088;DHT22;9676;50.916;13.352;2023-12-14T11:29:48;9.80;99.90
19088;DHT22;9676;50.916;13.352;2023-12-14T11:32:36;9.70;99.90
19088;DHT22;9676;50.916;13.352;2023-12-14T11:35:24;9.70;99.90
19088;DHT22;9676;50.916;13.352;2023-12-14T11:37:53;9.70;99.90
19088;DHT22;9676;50.916;13.352;2023-12-14T11:40:45;9.70;99.90
19088;DHT22;9676;50.916;13.352;2023-12-14T11:43:42;9.70;99.90
19088;DHT22;9676;50.916;13.352;2023-12-14T11:46:34;9.70;99.90
19088;DHT22;9676;50.916;13.352;2023-12-14T11:49:24;9.60;99.90
19088;DHT22;9676;50.916;13.352;2023-12-14T11:52:17;9.60;99.90
19088;DHT22;9676;50.916;13.352;2023-12-14T11:55:07;9.60;99.90
19088;DHT22;9676;50.916;13.352;2023-12-14T11:57:59;9.60;99.90
19088;DHT22;9676;50.916;13.352;2023-12-14T12:00:49;9.70;99.90
19088;DHT22;9676;50.916;13.352;2023-12-14T12:03:40;9.60;99.90
19088;DHT22;9676;50.916;13.352;2023-12-14T12:06:29;9.70;99.90
19088;DHT22;9676;50.916;13.352;2023-12-14T12:09:36;9.70;99.90
19088;DHT22;9676;50.916;13.352;2023-12-14T12:12:27;9.70;99.90
19088;DHT22;9676;50.916;13.352;2023-12-14T12:15:16;9.60;99.90
19088;DHT22;9676;50.916;13.352;2023-12-14T12:18:08;9.60;99.90
19088;DHT22;9676;50.916;13.352;2023-12-14T12:20:59;9.60;99.90
19088;DHT22;9676;50.916;13.352;2023-12-14T12:23:53;9.60;99.90
19088;DHT22;9676;50.916;13.352;2023-12-14T12:26:42;9.60;99.90
19088;DHT22;9676;50.916;13.352;2023-12-14T12:29:32;9.60;99.90
19088;DHT22;9676;50.916;13.352;2023-12-14T12:32:21;9.60;99.90
19088;DHT22;9676;50.916;13.352;2023-12-14T12:35:11;9.60;99.90
19088;DHT22;9676;50.916;13.352;2023-12-14T12:38:02;9.60;99.90
19088;DHT22;9676;50.916;13.352;2023-12-14T12:40:52;9.70;99.90
19088;DHT22;9676;50.916;13.352;2023-12-14T12:43:26;9.60;99.90
19088;DHT22;9676;50.916;13.352;2023-12-14T12:46:01;9.60;99.90
19088;DHT22;9676;50.916;13.352;2023-12-14T12:48:48;9.60;99.90
19088;DHT22;9676;50.916;13.352;2023-12-14T12:51:38;9.60;99.90
19088;DHT22;9676;50.916;13.352;2023-12-14T12:54:09;9.60;99.90
19088;DHT22;9676;50.916;13.352;2023-12-14T12:56:40;9.50;99.90
19088;DHT22;9676;50.916;13.352;2023-12-14T12:59:10;9.50;99.90
19088;DHT22;9676;50.916;13.352;2023-12-14T13:01:41;9.40;99.90
19088;DHT22;9676;50.916;13.352;2023-12-14T13:04:18;9.40;99.90
19088;DHT22;9676;50.916;13.352;2023-12-14T13:06:54;9.30;99.90
19088;DHT22;9676;50.916;13.352;2023-12-14T13:09:25;9.30;99.90
19088;DHT22;9676;50.916;13.352;2023-12-14T13:11:55;9.30;99.90
19088;DHT22;9676;50.916;13.352;2023-12-14T13:14:24;9.20;99.90
19088;DHT22;9676;50.916;13.352;2023-12-14T13:16:53;9.20;99.90
19088;DHT22;9676;50.916;13.352;2023-12-14T13:19:23;9.10;99.90
19088;DHT22;9676;50.916;13.352;2023-12-14T13:21:53;9.10;99.90
19088;DHT22;9676;50.916;13.352;2023-12-14T13:24:45;9.10;99.90
19088;DHT22;9676;50.916;13.352;2023-12-14T13:27:14;9.10;99.90
19088;DHT22;9676;50.916;13.352;2023-12-14T13:30:03;9.10;99.90
19088;DHT22;9676;50.916;13.352;2023-12-14T13:32:52;9.00;99.90
19088;DHT22;9676;50.916;13.352;2023-12-14T13:35:32;9.00;99.90
19088;DHT22;9676;50.916;13.352;2023-12-14T13:38:20;9.00;99.90
19088;DHT22;9676;50.916;13.352;2023-12-14T13:41:09;9.00;99.90
19088;DHT22;9676;50.916;13.352;2023-12-14T13:43:57;9.00;99.90
19088;DHT22;9676;50.916;13.352;2023-12-14T13:46:26;8.90;99.90
19088;DHT22;9676;50.916;13.352;2023-12-14T13:49:01;8.90;99.90
19088;DHT22;9676;50.916;13.352;2023-12-14T13:51:42;8.80;99.90
19088;DHT22;9676;50.916;13.352;2023-12-14T13:54:29;8.80;99.90
19088;DHT22;9676;50.916;13.352;2023-12-14T13:57:18;8.70;99.90
19088;DHT22;9676;50.916;13.352;2023-12-14T14:00:08;8.70;99.90
19088;DHT22;9676;50.916;13.352;2023-12-14T14:02:57;8.70;99.90
19088;DHT22;9676;50.916;13.352;2023-12-14T14:05:30;8.60;99.90
19088;DHT22;9676;50.916;13.352;2023-12-14T14:08:00;8.60;99.90
19088;DHT22;9676;50.916;13.352;2023-12-14T14:10:30;8.60;99.90
19088;DHT22;9676;50.916;13.352;2023-12-14T14:13:03;8.60;99.90
19088;DHT22;9676;50.916;13.352;2023-12-14T14:15:51;8.60;99.90
19088;DHT22;9676;50.916;13.352;2023-12-14T14:18:20;8.50;99.90
19088;DHT22;9676;50.916;13.352;2023-12-14T14:21:09;8.50;99.90
19088;DHT22;9676;50.916;13.352;2023-12-14T14:23:38;8.50;99.90
19088;DHT22;9676;50.916;13.352;2023-12-14T14:26:07;8.50;99.90
19088;DHT22;9676;50.916;13.352;2023-12-14T14:28:57;8.40;99.90
19088;DHT22;9676;50.916;13.352;2023-12-14T14:31:48;8.50;99.90
19088;DHT22;9676;50.916;13.352;2023-12-14T14:34:35;8.50;99.90
19088;DHT22;9676;50.916;13.352;2023-12-14T14:37:05;8.50;99.90
19088;DHT22;9676;50.916;13.352;2023-12-14T14:39:34;8.40;99.90
19088;DHT22;9676;50.916;13.352;2023-12-14T14:42:08;8.50;99.90
19088;DHT22;9676;50.916;13.352;2023-12-14T14:44:39;8.40;99.90
19088;DHT22;9676;50.916;13.352;2023-12-14T14:47:27;8.40;99.90
19088;DHT22;9676;50.916;13.352;2023-12-14T14:50:15;8.50;99.90
19088;DHT22;9676;50.916;13.352;2023-12-14T14:52:45;8.50;99.90
19088;DHT22;9676;50.916;13.352;2023-12-14T14:55:33;8.50;99.90
19088;DHT22;9676;50.916;13.352;2023-12-14T14:58:21;8.50;99.90
19088;DHT22;9676;50.916;13.352;2023-12-14T15:00:52;8.50;99.90
19088;DHT22;9676;50.916;13.352;2023-12-14T15:03:39;8.40;99.90
19088;DHT22;9676;50.916;13.352;2023-12-14T15:06:27;8.40;99.90
19088;DHT22;9676;50.916;13.352;2023-12-14T15:09:15;8.30;99.90
19088;DHT22;9676;50.916;13.352;2023-12-14T15:11:45;8.30;99.90
19088;DHT22;9676;50.916;13.352;2023-12-14T15:14:32;8.20;99.90
19088;DHT22;9676;50.916;13.352;2023-12-14T15:17:23;8.20;99.90
19088;DHT22;9676;50.916;13.352;2023-12-14T15:20:11;8.20;99.90
19088;DHT22;9676;50.916;13.352;2023-12-14T15:23:01;8.20;99.90
19088;DHT22;9676;50.916;13.352;2023-12-14T15:25:51;8.10;99.90
19088;DHT22;9676;50.916;13.352;2023-12-14T15:28:41;8.10;99.90
19088;DHT22;9676;50.916;13.352;2023-12-14T15:31:13;8.10;99.90
19088;DHT22;9676;50.916;13.352;2023-12-14T15:33:44;8.10;99.90
19088;DHT22;9676;50.916;13.352;2023-12-14T15:36:14;8.10;99.90
19088;DHT22;9676;50.916;13.352;2023-12-14T15:38:43;8.10;99.90
19088;DHT22;9676;50.916;13.352;2023-12-14T15:41:13;8.10;99.90
19088;DHT22;9676;50.916;13.352;2023-12-14T15:43:44;8.10;99.90
19088;DHT22;9676;50.916;13.352;2023-12-14T15:46:13;8.10;99.90
19088;DHT22;9676;50.916;13.352;2023-12-14T15:48:44;8.10;99.90
19088;DHT22;9676;50.916;13.352;2023-12-14T15:51:14;8.20;99.90
19088;DHT22;9676;50.916;13.352;2023-12-14T15:53:43;8.20;99.90
19088;DHT22;9676;50.916;13.352;2023-12-14T15:56:13;8.20;99.90
19088;DHT22;9676;50.916;13.352;2023-12-14T15:58:43;8.20;99.90
19088;DHT22;9676;50.916;13.352;2023-12-14T16:01:13;8.30;99.90
19088;DHT22;9676;50.916;13.352;2023-12-14T16:03:45;8.30;99.90
19088;DHT22;9676;50.916;13.352;2023-12-14T16:06:14;8.30;99.90
19088;DHT22;9676;50.916;13.352;2023-12-14T16:08:45;8.20;99.90
19088;DHT22;9676;50.916;13.352;2023-12-14T16:11:15;8.20;99.90
19088;DHT22;9676;50.916;13.352;2023-12-14T16:13:44;8.20;99.90
19088;DHT22;9676;50.916;13.352;2023-12-14T16:16:16;8.20;99.90
19088;DHT22;9676;50.916;13.352;2023-12-14T16:18:47;8.20;99.90
19088;DHT22;9676;50.916;13.352;2023-12-14T16:21:17;8.20;99.90
19088;DHT22;9676;50.916;13.352;2023-12-14T16:23:47;8.10;99.90
19088;DHT22;9676;50.916;13.352;2023-12-14T16:26:17;8.10;99.90
19088;DHT22;9676;50.916;13.352;2023-12-14T16:28:46;8.10;99.90
19088;DHT22;9676;50.916;13.352;2023-12-14T16:31:16;8.10;99.90
19088;DHT22;9676;50.916;13.352;2023-12-14T16:33:46;8.10;99.90
19088;DHT22;9676;50.916;13.352;2023-12-14T16:36:16;8.10;99.90
19088;DHT22;9676;50.916;13.352;2023-12-14T16:38:45;8.10;99.90
19088;DHT22;9676;50.916;13.352;2023-12-14T16:41:14;8.10;99.90
19088;DHT22;9676;50.916;13.352;2023-12-14T16:43:48;8.10;99.90
19088;DHT22;9676;50.916;13.352;2023-12-14T16:46:18;8.00;99.90
19088;DHT22;9676;50.916;13.352;2023-12-14T16:48:49;8.00;99.90
19088;DHT22;9676;50.916;13.352;2023-12-14T16:51:18;8.00;99.90
19088;DHT22;9676;50.916;13.352;2023-12-14T16:53:48;8.00;99.90
19088;DHT22;9676;50.916;13.352;2023-12-14T16:56:17;8.00;99.90
19088;DHT22;9676;50.916;13.352;2023-12-14T16:58:46;7.90;99.90
19088;DHT22;9676;50.916;13.352;2023-12-14T17:01:18;7.90;99.90
19088;DHT22;9676;50.916;13.352;2023-12-14T17:03:48;7.90;99.90
19088;DHT22;9676;50.916;13.352;2023-12-14T17:06:18;7.90;99.90
19088;DHT22;9676;50.916;13.352;2023-12-14T17:08:48;7.90;99.90
19088;DHT22;9676;50.916;13.352;2023-12-14T17:11:17;7.90;99.90
19088;DHT22;9676;50.916;13.352;2023-12-14T17:13:48;7.90;99.90
19088;DHT22;9676;50.916;13.352;2023-12-14T17:16:18;8.00;99.90
19088;DHT22;9676;50.916;13.352;2023-12-14T17:18:50;8.00;99.90